sensor_id;sensor_type;location;lat;lon;timestamp;P1;durP1;ratioP1;P2;durP2;ratioP2
55762;SDS011;42162;51.958;5.426;2023-09-30T00:01:57;15.38;;;3.53;;
55762;SDS011;42162;51.958;5.426;2023-09-30T00:04:25;11.25;;;3.63;;
55762;SDS011;42162;51.958;5.426;2023-09-30T00:06:54;9.50;;;3.55;;
55762;SDS011;42162;51.958;5.426;2023-09-30T00:09:21;13.30;;;4.40;;
55762;SDS011;42162;51.958;5.426;2023-09-30T00:11:48;9.95;;;3.40;;
55762;SDS011;42162;51.958;5.426;2023-09-30T00:14:15;10.90;;;3.53;;
55762;SDS011;42162;51.958;5.426;2023-09-30T00:16:43;12.20;;;4.30;;
55762;SDS011;42162;51.958;5.426;2023-09-30T00:19:11;11.02;;;4.00;;
55762;SDS011;42162;51.958;5.426;2023-09-30T00:21:38;11.25;;;3.58;;
55762;SDS011;42162;51.958;5.426;2023-09-30T00:24:05;10.40;;;4.07;;
55762;SDS011;42162;51.958;5.426;2023-09-30T00:26:32;7.72;;;3.65;;
55762;SDS011;42162;51.958;5.426;2023-09-30T00:28:59;8.07;;;4.47;;
55762;SDS011;42162;51.958;5.426;2023-09-30T00:31:26;9.73;;;4.00;;
55762;SDS011;42162;51.958;5.426;2023-09-30T00:33:54;17.15;;;4.80;;
55762;SDS011;42162;51.958;5.426;2023-09-30T00:36:21;16.58;;;4.40;;
55762;SDS011;42162;51.958;5.426;2023-09-30T00:38:49;13.50;;;4.20;;
55762;SDS011;42162;51.958;5.426;2023-09-30T00:41:16;11.57;;;4.38;;
55762;SDS011;42162;51.958;5.426;2023-09-30T00:43:45;8.25;;;3.95;;
55762;SDS011;42162;51.958;5.426;2023-09-30T00:48:40;10.13;;;4.57;;
55762;SDS011;42162;51.958;5.426;2023-09-30T00:51:07;9.52;;;3.92;;
55762;SDS011;42162;51.958;5.426;2023-09-30T00:53:35;8.70;;;4.15;;
55762;SDS011;42162;51.958;5.426;2023-09-30T00:56:02;13.55;;;4.20;;
55762;SDS011;42162;51.958;5.426;2023-09-30T00:58:29;9.88;;;4.80;;
55762;SDS011;42162;51.958;5.426;2023-09-30T01:00:57;9.57;;;4.20;;
55762;SDS011;42162;51.958;5.426;2023-09-30T01:03:26;12.52;;;4.53;;
55762;SDS011;42162;51.958;5.426;2023-09-30T01:05:53;11.77;;;4.63;;
55762;SDS011;42162;51.958;5.426;2023-09-30T01:08:21;12.55;;;4.80;;
55762;SDS011;42162;51.958;5.426;2023-09-30T01:10:49;7.18;;;4.00;;
55762;SDS011;42162;51.958;5.426;2023-09-30T01:13:17;14.90;;;4.40;;
55762;SDS011;42162;51.958;5.426;2023-09-30T01:15:45;11.80;;;4.28;;
55762;SDS011;42162;51.958;5.426;2023-09-30T01:18:14;14.55;;;5.03;;
55762;SDS011;42162;51.958;5.426;2023-09-30T01:20:41;12.20;;;4.93;;
55762;SDS011;42162;51.958;5.426;2023-09-30T01:23:08;12.77;;;5.18;;
55762;SDS011;42162;51.958;5.426;2023-09-30T01:25:40;11.93;;;4.88;;
55762;SDS011;42162;51.958;5.426;2023-09-30T01:28:09;9.52;;;4.63;;
55762;SDS011;42162;51.958;5.426;2023-09-30T01:30:36;8.48;;;5.05;;
55762;SDS011;42162;51.958;5.426;2023-09-30T01:33:04;11.32;;;5.18;;
55762;SDS011;42162;51.958;5.426;2023-09-30T01:35:32;8.52;;;4.45;;
55762;SDS011;42162;51.958;5.426;2023-09-30T01:37:59;15.50;;;4.47;;
55762;SDS011;42162;51.958;5.426;2023-09-30T01:40:26;22.15;;;4.82;;
55762;SDS011;42162;51.958;5.426;2023-09-30T01:42:55;11.30;;;4.57;;
55762;SDS011;42162;51.958;5.426;2023-09-30T01:45:23;16.83;;;4.18;;
55762;SDS011;42162;51.958;5.426;2023-09-30T01:47:50;11.05;;;4.15;;
55762;SDS011;42162;51.958;5.426;2023-09-30T01:50:18;5.82;;;3.88;;
55762;SDS011;42162;51.958;5.426;2023-09-30T01:52:46;11.25;;;4.72;;
55762;SDS011;42162;51.958;5.426;2023-09-30T01:55:13;11.45;;;4.75;;
55762;SDS011;42162;51.958;5.426;2023-09-30T01:57:40;12.80;;;5.13;;
55762;SDS011;42162;51.958;5.426;2023-09-30T02:00:08;9.15;;;5.25;;
55762;SDS011;42162;51.958;5.426;2023-09-30T02:02:41;11.73;;;5.55;;
55762;SDS011;42162;51.958;5.426;2023-09-30T02:05:08;9.82;;;4.97;;
55762;SDS011;42162;51.958;5.426;2023-09-30T02:07:36;12.38;;;6.05;;
55762;SDS011;42162;51.958;5.426;2023-09-30T02:10:03;15.00;;;5.15;;
55762;SDS011;42162;51.958;5.426;2023-09-30T02:12:32;8.13;;;4.38;;
55762;SDS011;42162;51.958;5.426;2023-09-30T02:14:59;9.18;;;4.50;;
55762;SDS011;42162;51.958;5.426;2023-09-30T02:17:26;11.27;;;4.60;;
55762;SDS011;42162;51.958;5.426;2023-09-30T02:19:53;11.55;;;5.47;;
55762;SDS011;42162;51.958;5.426;2023-09-30T02:22:21;11.20;;;5.82;;
55762;SDS011;42162;51.958;5.426;2023-09-30T02:24:50;10.90;;;5.80;;
55762;SDS011;42162;51.958;5.426;2023-09-30T02:27:17;10.88;;;6.20;;
55762;SDS011;42162;51.958;5.426;2023-09-30T02:29:44;11.77;;;5.97;;
55762;SDS011;42162;51.958;5.426;2023-09-30T02:32:11;11.82;;;6.78;;
55762;SDS011;42162;51.958;5.426;2023-09-30T02:34:40;11.93;;;5.78;;
55762;SDS011;42162;51.958;5.426;2023-09-30T02:37:09;11.52;;;6.15;;
55762;SDS011;42162;51.958;5.426;2023-09-30T02:39:37;10.10;;;5.78;;
55762;SDS011;42162;51.958;5.426;2023-09-30T02:42:04;12.32;;;4.75;;
55762;SDS011;42162;51.958;5.426;2023-09-30T02:44:32;11.23;;;5.75;;
55762;SDS011;42162;51.958;5.426;2023-09-30T02:46:59;9.35;;;5.13;;
55762;SDS011;42162;51.958;5.426;2023-09-30T02:49:26;8.38;;;5.03;;
55762;SDS011;42162;51.958;5.426;2023-09-30T02:51:54;11.95;;;5.72;;
55762;SDS011;42162;51.958;5.426;2023-09-30T02:54:21;13.00;;;4.95;;
55762;SDS011;42162;51.958;5.426;2023-09-30T02:56:48;10.65;;;5.78;;
55762;SDS011;42162;51.958;5.426;2023-09-30T02:59:15;10.00;;;5.57;;
55762;SDS011;42162;51.958;5.426;2023-09-30T03:01:43;14.30;;;5.93;;
55762;SDS011;42162;51.958;5.426;2023-09-30T03:04:10;12.43;;;5.97;;
55762;SDS011;42162;51.958;5.426;2023-09-30T03:06:39;10.73;;;6.68;;
55762;SDS011;42162;51.958;5.426;2023-09-30T03:09:06;13.32;;;6.38;;
55762;SDS011;42162;51.958;5.426;2023-09-30T03:11:36;11.07;;;6.40;;
55762;SDS011;42162;51.958;5.426;2023-09-30T03:14:03;11.93;;;6.22;;
55762;SDS011;42162;51.958;5.426;2023-09-30T03:16:30;14.77;;;6.63;;
55762;SDS011;42162;51.958;5.426;2023-09-30T03:18:57;11.10;;;6.28;;
55762;SDS011;42162;51.958;5.426;2023-09-30T03:21:24;10.82;;;5.70;;
55762;SDS011;42162;51.958;5.426;2023-09-30T03:23:53;15.98;;;6.80;;
55762;SDS011;42162;51.958;5.426;2023-09-30T03:26:20;11.98;;;6.45;;
55762;SDS011;42162;51.958;5.426;2023-09-30T03:28:47;11.38;;;6.47;;
55762;SDS011;42162;51.958;5.426;2023-09-30T03:31:18;11.07;;;5.55;;
55762;SDS011;42162;51.958;5.426;2023-09-30T03:33:46;14.77;;;5.53;;
55762;SDS011;42162;51.958;5.426;2023-09-30T03:36:15;10.88;;;5.40;;
55762;SDS011;42162;51.958;5.426;2023-09-30T03:38:44;8.20;;;4.55;;
55762;SDS011;42162;51.958;5.426;2023-09-30T03:41:11;15.20;;;5.45;;
55762;SDS011;42162;51.958;5.426;2023-09-30T03:43:40;7.90;;;4.47;;
55762;SDS011;42162;51.958;5.426;2023-09-30T03:46:08;9.68;;;4.95;;
55762;SDS011;42162;51.958;5.426;2023-09-30T03:48:35;13.90;;;5.80;;
55762;SDS011;42162;51.958;5.426;2023-09-30T03:51:10;10.57;;;5.85;;
55762;SDS011;42162;51.958;5.426;2023-09-30T03:53:41;11.48;;;7.20;;
55762;SDS011;42162;51.958;5.426;2023-09-30T03:56:09;11.63;;;5.97;;
55762;SDS011;42162;51.958;5.426;2023-09-30T03:58:39;11.88;;;6.55;;
55762;SDS011;42162;51.958;5.426;2023-09-30T04:01:08;12.80;;;5.70;;
55762;SDS011;42162;51.958;5.426;2023-09-30T04:03:38;8.05;;;5.32;;
55762;SDS011;42162;51.958;5.426;2023-09-30T04:06:06;10.50;;;6.13;;
55762;SDS011;42162;51.958;5.426;2023-09-30T04:08:33;12.60;;;6.90;;
55762;SDS011;42162;51.958;5.426;2023-09-30T04:11:01;14.75;;;7.25;;
55762;SDS011;42162;51.958;5.426;2023-09-30T04:13:32;13.63;;;6.53;;
55762;SDS011;42162;51.958;5.426;2023-09-30T04:16:00;14.57;;;6.43;;
55762;SDS011;42162;51.958;5.426;2023-09-30T04:18:28;14.20;;;6.03;;
55762;SDS011;42162;51.958;5.426;2023-09-30T04:20:55;11.32;;;6.55;;
55762;SDS011;42162;51.958;5.426;2023-09-30T04:23:22;14.60;;;6.78;;
55762;SDS011;42162;51.958;5.426;2023-09-30T04:25:49;12.40;;;6.93;;
55762;SDS011;42162;51.958;5.426;2023-09-30T04:28:16;12.00;;;7.22;;
55762;SDS011;42162;51.958;5.426;2023-09-30T04:30:47;14.10;;;7.32;;
55762;SDS011;42162;51.958;5.426;2023-09-30T04:33:16;10.98;;;7.00;;
55762;SDS011;42162;51.958;5.426;2023-09-30T04:35:44;14.68;;;7.88;;
55762;SDS011;42162;51.958;5.426;2023-09-30T04:38:12;16.40;;;8.40;;
55762;SDS011;42162;51.958;5.426;2023-09-30T04:40:40;13.23;;;8.25;;
55762;SDS011;42162;51.958;5.426;2023-09-30T04:43:07;17.23;;;8.40;;
55762;SDS011;42162;51.958;5.426;2023-09-30T04:45:36;13.38;;;8.45;;
55762;SDS011;42162;51.958;5.426;2023-09-30T04:48:03;14.43;;;7.85;;
55762;SDS011;42162;51.958;5.426;2023-09-30T04:50:31;13.27;;;7.53;;
55762;SDS011;42162;51.958;5.426;2023-09-30T04:52:58;13.73;;;7.22;;
55762;SDS011;42162;51.958;5.426;2023-09-30T04:55:27;12.63;;;7.35;;
55762;SDS011;42162;51.958;5.426;2023-09-30T04:57:55;15.10;;;8.13;;
55762;SDS011;42162;51.958;5.426;2023-09-30T05:00:22;14.13;;;8.30;;
55762;SDS011;42162;51.958;5.426;2023-09-30T05:02:52;14.05;;;7.07;;
55762;SDS011;42162;51.958;5.426;2023-09-30T05:05:22;14.45;;;8.05;;
55762;SDS011;42162;51.958;5.426;2023-09-30T05:07:49;16.33;;;6.80;;
55762;SDS011;42162;51.958;5.426;2023-09-30T05:10:16;16.13;;;7.68;;
55762;SDS011;42162;51.958;5.426;2023-09-30T05:12:44;14.52;;;8.00;;
55762;SDS011;42162;51.958;5.426;2023-09-30T05:15:14;13.13;;;7.72;;
55762;SDS011;42162;51.958;5.426;2023-09-30T05:17:43;11.23;;;7.28;;
55762;SDS011;42162;51.958;5.426;2023-09-30T05:20:11;11.80;;;7.47;;
55762;SDS011;42162;51.958;5.426;2023-09-30T05:22:39;13.27;;;8.05;;
55762;SDS011;42162;51.958;5.426;2023-09-30T05:25:13;12.13;;;7.68;;
55762;SDS011;42162;51.958;5.426;2023-09-30T05:27:44;14.77;;;7.93;;
55762;SDS011;42162;51.958;5.426;2023-09-30T05:30:15;15.05;;;8.10;;
55762;SDS011;42162;51.958;5.426;2023-09-30T05:32:42;11.77;;;7.45;;
55762;SDS011;42162;51.958;5.426;2023-09-30T05:35:10;17.58;;;7.50;;
55762;SDS011;42162;51.958;5.426;2023-09-30T05:37:40;8.70;;;6.18;;
55762;SDS011;42162;51.958;5.426;2023-09-30T05:40:08;16.48;;;6.40;;
55762;SDS011;42162;51.958;5.426;2023-09-30T05:42:50;9.80;;;6.05;;
55762;SDS011;42162;51.958;5.426;2023-09-30T05:45:18;10.38;;;6.65;;
55762;SDS011;42162;51.958;5.426;2023-09-30T05:47:46;10.30;;;6.30;;
55762;SDS011;42162;51.958;5.426;2023-09-30T05:50:17;18.60;;;7.68;;
55762;SDS011;42162;51.958;5.426;2023-09-30T05:52:50;9.48;;;7.63;;
55762;SDS011;42162;51.958;5.426;2023-09-30T05:55:17;14.45;;;7.78;;
55762;SDS011;42162;51.958;5.426;2023-09-30T05:57:48;15.60;;;7.72;;
55762;SDS011;42162;51.958;5.426;2023-09-30T06:00:16;16.90;;;8.25;;
55762;SDS011;42162;51.958;5.426;2023-09-30T06:02:51;13.57;;;8.88;;
55762;SDS011;42162;51.958;5.426;2023-09-30T06:05:18;16.25;;;9.15;;
55762;SDS011;42162;51.958;5.426;2023-09-30T06:07:46;14.85;;;8.00;;
55762;SDS011;42162;51.958;5.426;2023-09-30T06:10:13;13.63;;;7.47;;
55762;SDS011;42162;51.958;5.426;2023-09-30T06:12:49;12.57;;;6.55;;
55762;SDS011;42162;51.958;5.426;2023-09-30T06:15:23;13.18;;;7.97;;
55762;SDS011;42162;51.958;5.426;2023-09-30T06:20:23;11.57;;;8.43;;
55762;SDS011;42162;51.958;5.426;2023-09-30T06:22:54;14.98;;;10.00;;
55762;SDS011;42162;51.958;5.426;2023-09-30T06:25:21;14.38;;;9.98;;
55762;SDS011;42162;51.958;5.426;2023-09-30T06:27:51;11.73;;;7.10;;
55762;SDS011;42162;51.958;5.426;2023-09-30T06:30:19;11.93;;;8.10;;
55762;SDS011;42162;51.958;5.426;2023-09-30T06:32:48;11.85;;;8.05;;
55762;SDS011;42162;51.958;5.426;2023-09-30T06:35:15;13.52;;;9.02;;
55762;SDS011;42162;51.958;5.426;2023-09-30T06:37:45;18.38;;;9.88;;
55762;SDS011;42162;51.958;5.426;2023-09-30T06:40:12;13.77;;;9.52;;
55762;SDS011;42162;51.958;5.426;2023-09-30T06:42:39;13.73;;;9.88;;
55762;SDS011;42162;51.958;5.426;2023-09-30T06:45:07;16.58;;;10.40;;
55762;SDS011;42162;51.958;5.426;2023-09-30T06:47:37;15.50;;;10.02;;
55762;SDS011;42162;51.958;5.426;2023-09-30T06:50:10;15.85;;;9.45;;
55762;SDS011;42162;51.958;5.426;2023-09-30T06:52:40;13.35;;;9.65;;
55762;SDS011;42162;51.958;5.426;2023-09-30T06:55:08;12.95;;;10.07;;
55762;SDS011;42162;51.958;5.426;2023-09-30T06:57:36;12.93;;;8.18;;
55762;SDS011;42162;51.958;5.426;2023-09-30T07:00:08;15.65;;;10.23;;
55762;SDS011;42162;51.958;5.426;2023-09-30T07:02:40;18.05;;;10.25;;
55762;SDS011;42162;51.958;5.426;2023-09-30T07:05:09;14.15;;;9.55;;
55762;SDS011;42162;51.958;5.426;2023-09-30T07:07:38;26.63;;;10.95;;
55762;SDS011;42162;51.958;5.426;2023-09-30T07:10:10;13.15;;;9.13;;
55762;SDS011;42162;51.958;5.426;2023-09-30T07:12:38;15.45;;;10.18;;
55762;SDS011;42162;51.958;5.426;2023-09-30T07:15:06;13.95;;;9.38;;
55762;SDS011;42162;51.958;5.426;2023-09-30T07:17:35;17.52;;;9.70;;
55762;SDS011;42162;51.958;5.426;2023-09-30T07:20:03;17.45;;;8.63;;
55762;SDS011;42162;51.958;5.426;2023-09-30T07:22:32;12.50;;;8.80;;
55762;SDS011;42162;51.958;5.426;2023-09-30T07:25:18;12.98;;;8.70;;
55762;SDS011;42162;51.958;5.426;2023-09-30T07:27:45;15.30;;;8.93;;
55762;SDS011;42162;51.958;5.426;2023-09-30T07:30:13;12.98;;;8.20;;
55762;SDS011;42162;51.958;5.426;2023-09-30T07:32:45;20.98;;;9.30;;
55762;SDS011;42162;51.958;5.426;2023-09-30T07:35:13;16.88;;;9.02;;
55762;SDS011;42162;51.958;5.426;2023-09-30T07:37:43;14.02;;;8.70;;
55762;SDS011;42162;51.958;5.426;2023-09-30T07:40:11;15.32;;;9.40;;
55762;SDS011;42162;51.958;5.426;2023-09-30T07:42:39;13.13;;;7.90;;
55762;SDS011;42162;51.958;5.426;2023-09-30T07:45:07;12.55;;;7.57;;
55762;SDS011;42162;51.958;5.426;2023-09-30T07:47:34;11.88;;;7.60;;
55762;SDS011;42162;51.958;5.426;2023-09-30T07:50:02;13.70;;;8.27;;
55762;SDS011;42162;51.958;5.426;2023-09-30T07:52:33;13.10;;;7.97;;
55762;SDS011;42162;51.958;5.426;2023-09-30T07:55:00;18.67;;;7.90;;
55762;SDS011;42162;51.958;5.426;2023-09-30T07:57:27;18.42;;;8.85;;
55762;SDS011;42162;51.958;5.426;2023-09-30T07:59:54;14.63;;;7.68;;
55762;SDS011;42162;51.958;5.426;2023-09-30T08:02:22;13.32;;;7.60;;
55762;SDS011;42162;51.958;5.426;2023-09-30T08:04:51;14.48;;;8.65;;
55762;SDS011;42162;51.958;5.426;2023-09-30T08:07:18;14.93;;;8.05;;
55762;SDS011;42162;51.958;5.426;2023-09-30T08:09:48;14.85;;;8.38;;
55762;SDS011;42162;51.958;5.426;2023-09-30T08:12:16;17.25;;;7.93;;
55762;SDS011;42162;51.958;5.426;2023-09-30T08:14:45;16.20;;;8.55;;
55762;SDS011;42162;51.958;5.426;2023-09-30T08:17:12;14.25;;;8.30;;
55762;SDS011;42162;51.958;5.426;2023-09-30T08:19:40;14.82;;;7.85;;
55762;SDS011;42162;51.958;5.426;2023-09-30T08:22:07;15.40;;;8.25;;
55762;SDS011;42162;51.958;5.426;2023-09-30T08:24:36;16.40;;;7.68;;
55762;SDS011;42162;51.958;5.426;2023-09-30T08:27:03;14.73;;;7.40;;
55762;SDS011;42162;51.958;5.426;2023-09-30T08:29:30;13.23;;;7.75;;
55762;SDS011;42162;51.958;5.426;2023-09-30T08:31:59;17.67;;;7.57;;
55762;SDS011;42162;51.958;5.426;2023-09-30T08:34:26;12.63;;;7.72;;
55762;SDS011;42162;51.958;5.426;2023-09-30T08:36:53;16.58;;;7.95;;
55762;SDS011;42162;51.958;5.426;2023-09-30T08:39:20;13.90;;;7.32;;
55762;SDS011;42162;51.958;5.426;2023-09-30T08:41:47;14.00;;;7.88;;
55762;SDS011;42162;51.958;5.426;2023-09-30T08:44:14;16.45;;;8.10;;
55762;SDS011;42162;51.958;5.426;2023-09-30T08:46:41;17.95;;;7.63;;
55762;SDS011;42162;51.958;5.426;2023-09-30T08:49:09;11.10;;;6.63;;
55762;SDS011;42162;51.958;5.426;2023-09-30T08:51:38;19.30;;;7.80;;
55762;SDS011;42162;51.958;5.426;2023-09-30T08:54:05;14.45;;;6.93;;
55762;SDS011;42162;51.958;5.426;2023-09-30T08:56:33;16.77;;;8.20;;
55762;SDS011;42162;51.958;5.426;2023-09-30T08:59:02;16.02;;;6.57;;
55762;SDS011;42162;51.958;5.426;2023-09-30T09:01:30;15.95;;;7.22;;
55762;SDS011;42162;51.958;5.426;2023-09-30T09:03:58;14.40;;;6.97;;
55762;SDS011;42162;51.958;5.426;2023-09-30T09:06:25;14.55;;;7.47;;
55762;SDS011;42162;51.958;5.426;2023-09-30T09:08:53;14.93;;;7.70;;
55762;SDS011;42162;51.958;5.426;2023-09-30T09:11:21;12.48;;;6.80;;
55762;SDS011;42162;51.958;5.426;2023-09-30T09:13:51;12.70;;;7.30;;
55762;SDS011;42162;51.958;5.426;2023-09-30T09:16:23;15.13;;;7.38;;
55762;SDS011;42162;51.958;5.426;2023-09-30T09:18:51;12.43;;;6.70;;
55762;SDS011;42162;51.958;5.426;2023-09-30T09:21:19;22.65;;;7.15;;
55762;SDS011;42162;51.958;5.426;2023-09-30T09:23:50;14.85;;;6.85;;
55762;SDS011;42162;51.958;5.426;2023-09-30T09:26:25;15.93;;;7.85;;
55762;SDS011;42162;51.958;5.426;2023-09-30T09:29:00;14.48;;;7.00;;
55762;SDS011;42162;51.958;5.426;2023-09-30T09:31:30;15.00;;;7.25;;
55762;SDS011;42162;51.958;5.426;2023-09-30T09:34:12;13.32;;;7.55;;
55762;SDS011;42162;51.958;5.426;2023-09-30T09:36:44;14.07;;;6.72;;
55762;SDS011;42162;51.958;5.426;2023-09-30T09:41:49;12.18;;;6.72;;
55762;SDS011;42162;51.958;5.426;2023-09-30T09:44:21;15.55;;;6.93;;
55762;SDS011;42162;51.958;5.426;2023-09-30T09:49:17;13.65;;;6.78;;
55762;SDS011;42162;51.958;5.426;2023-09-30T09:51:46;9.95;;;6.53;;
55762;SDS011;42162;51.958;5.426;2023-09-30T09:54:15;12.98;;;6.68;;
55762;SDS011;42162;51.958;5.426;2023-09-30T09:56:43;17.10;;;7.32;;
55762;SDS011;42162;51.958;5.426;2023-09-30T09:59:12;15.85;;;7.20;;
55762;SDS011;42162;51.958;5.426;2023-09-30T10:01:41;14.80;;;7.05;;
55762;SDS011;42162;51.958;5.426;2023-09-30T10:04:12;14.10;;;7.18;;
55762;SDS011;42162;51.958;5.426;2023-09-30T10:06:42;16.50;;;6.88;;
55762;SDS011;42162;51.958;5.426;2023-09-30T10:09:15;15.07;;;6.75;;
55762;SDS011;42162;51.958;5.426;2023-09-30T10:11:44;16.65;;;7.32;;
55762;SDS011;42162;51.958;5.426;2023-09-30T10:14:31;19.17;;;5.82;;
55762;SDS011;42162;51.958;5.426;2023-09-30T10:17:02;12.80;;;5.10;;
55762;SDS011;42162;51.958;5.426;2023-09-30T10:19:30;12.55;;;5.18;;
55762;SDS011;42162;51.958;5.426;2023-09-30T10:22:41;11.90;;;4.70;;
55762;SDS011;42162;51.958;5.426;2023-09-30T10:24:57;15.60;;;5.15;;
55762;SDS011;42162;51.958;5.426;2023-09-30T10:27:27;12.50;;;3.92;;
55762;SDS011;42162;51.958;5.426;2023-09-30T10:30:05;7.72;;;3.58;;
55762;SDS011;42162;51.958;5.426;2023-09-30T10:35:20;13.07;;;4.65;;
55762;SDS011;42162;51.958;5.426;2023-09-30T10:40:55;11.55;;;5.03;;
55762;SDS011;42162;51.958;5.426;2023-09-30T10:43:32;9.55;;;4.80;;
55762;SDS011;42162;51.958;5.426;2023-09-30T10:46:04;16.17;;;4.65;;
55762;SDS011;42162;51.958;5.426;2023-09-30T10:48:53;15.82;;;4.57;;
55762;SDS011;42162;51.958;5.426;2023-09-30T10:51:20;8.30;;;4.15;;
55762;SDS011;42162;51.958;5.426;2023-09-30T10:53:51;11.57;;;4.03;;
55762;SDS011;42162;51.958;5.426;2023-09-30T10:56:23;7.55;;;3.75;;
55762;SDS011;42162;51.958;5.426;2023-09-30T10:58:59;14.05;;;4.13;;
55762;SDS011;42162;51.958;5.426;2023-09-30T11:01:32;9.85;;;3.53;;
55762;SDS011;42162;51.958;5.426;2023-09-30T11:04:02;12.38;;;4.10;;
55762;SDS011;42162;51.958;5.426;2023-09-30T11:06:32;8.88;;;3.35;;
55762;SDS011;42162;51.958;5.426;2023-09-30T11:09:00;9.82;;;4.57;;
55762;SDS011;42162;51.958;5.426;2023-09-30T11:11:47;11.25;;;4.32;;
55762;SDS011;42162;51.958;5.426;2023-09-30T11:14:26;13.43;;;4.57;;
55762;SDS011;42162;51.958;5.426;2023-09-30T11:16:58;12.57;;;5.07;;
55762;SDS011;42162;51.958;5.426;2023-09-30T11:19:46;12.23;;;4.53;;
55762;SDS011;42162;51.958;5.426;2023-09-30T11:22:14;10.25;;;4.35;;
55762;SDS011;42162;51.958;5.426;2023-09-30T11:24:42;8.43;;;3.67;;
55762;SDS011;42162;51.958;5.426;2023-09-30T11:27:09;13.70;;;5.30;;
55762;SDS011;42162;51.958;5.426;2023-09-30T11:29:36;11.13;;;4.57;;
55762;SDS011;42162;51.958;5.426;2023-09-30T11:32:03;14.85;;;5.20;;
55762;SDS011;42162;51.958;5.426;2023-09-30T11:34:31;10.75;;;4.85;;
55762;SDS011;42162;51.958;5.426;2023-09-30T11:37:00;12.25;;;5.10;;
55762;SDS011;42162;51.958;5.426;2023-09-30T11:39:28;11.55;;;5.00;;
55762;SDS011;42162;51.958;5.426;2023-09-30T11:41:57;18.75;;;4.10;;
55762;SDS011;42162;51.958;5.426;2023-09-30T11:44:25;13.88;;;4.75;;
55762;SDS011;42162;51.958;5.426;2023-09-30T11:47:01;9.55;;;4.43;;
55762;SDS011;42162;51.958;5.426;2023-09-30T11:49:32;12.32;;;4.22;;
55762;SDS011;42162;51.958;5.426;2023-09-30T11:52:12;9.35;;;3.72;;
55762;SDS011;42162;51.958;5.426;2023-09-30T11:54:42;8.65;;;3.20;;
55762;SDS011;42162;51.958;5.426;2023-09-30T11:57:11;8.95;;;3.25;;
55762;SDS011;42162;51.958;5.426;2023-09-30T11:59:44;6.80;;;3.15;;
55762;SDS011;42162;51.958;5.426;2023-09-30T12:02:12;10.45;;;3.72;;
55762;SDS011;42162;51.958;5.426;2023-09-30T12:04:42;12.88;;;3.80;;
55762;SDS011;42162;51.958;5.426;2023-09-30T12:07:11;9.02;;;2.83;;
55762;SDS011;42162;51.958;5.426;2023-09-30T12:09:39;9.88;;;3.67;;
55762;SDS011;42162;51.958;5.426;2023-09-30T12:12:08;10.93;;;4.20;;
55762;SDS011;42162;51.958;5.426;2023-09-30T12:14:39;12.27;;;4.07;;
55762;SDS011;42162;51.958;5.426;2023-09-30T12:17:07;11.90;;;4.60;;
55762;SDS011;42162;51.958;5.426;2023-09-30T12:19:41;9.20;;;3.78;;
55762;SDS011;42162;51.958;5.426;2023-09-30T12:22:10;6.85;;;2.97;;
55762;SDS011;42162;51.958;5.426;2023-09-30T12:24:37;9.57;;;3.17;;
55762;SDS011;42162;51.958;5.426;2023-09-30T12:27:08;10.38;;;3.42;;
55762;SDS011;42162;51.958;5.426;2023-09-30T12:29:38;10.32;;;2.88;;
55762;SDS011;42162;51.958;5.426;2023-09-30T12:32:07;9.15;;;2.50;;
55762;SDS011;42162;51.958;5.426;2023-09-30T12:34:35;8.88;;;3.17;;
55762;SDS011;42162;51.958;5.426;2023-09-30T12:37:03;6.18;;;2.75;;
55762;SDS011;42162;51.958;5.426;2023-09-30T12:39:33;12.05;;;2.60;;
55762;SDS011;42162;51.958;5.426;2023-09-30T12:42:02;10.07;;;2.95;;
55762;SDS011;42162;51.958;5.426;2023-09-30T12:44:36;8.25;;;2.83;;
55762;SDS011;42162;51.958;5.426;2023-09-30T12:47:05;6.53;;;2.90;;
55762;SDS011;42162;51.958;5.426;2023-09-30T12:49:33;10.88;;;3.10;;
55762;SDS011;42162;51.958;5.426;2023-09-30T12:52:01;9.75;;;4.80;;
55762;SDS011;42162;51.958;5.426;2023-09-30T12:54:32;9.43;;;3.53;;
55762;SDS011;42162;51.958;5.426;2023-09-30T12:57:04;10.10;;;3.25;;
55762;SDS011;42162;51.958;5.426;2023-09-30T12:59:35;14.48;;;4.18;;
55762;SDS011;42162;51.958;5.426;2023-09-30T13:02:04;12.20;;;3.50;;
55762;SDS011;42162;51.958;5.426;2023-09-30T13:04:33;8.90;;;3.35;;
55762;SDS011;42162;51.958;5.426;2023-09-30T13:07:01;9.07;;;4.00;;
55762;SDS011;42162;51.958;5.426;2023-09-30T13:09:29;11.48;;;4.95;;
55762;SDS011;42162;51.958;5.426;2023-09-30T13:11:56;7.45;;;3.65;;
55762;SDS011;42162;51.958;5.426;2023-09-30T13:14:27;9.88;;;3.95;;
55762;SDS011;42162;51.958;5.426;2023-09-30T13:16:56;7.85;;;3.13;;
55762;SDS011;42162;51.958;5.426;2023-09-30T13:19:25;11.15;;;3.30;;
55762;SDS011;42162;51.958;5.426;2023-09-30T13:21:52;9.25;;;3.58;;
55762;SDS011;42162;51.958;5.426;2023-09-30T13:24:19;9.70;;;4.20;;
55762;SDS011;42162;51.958;5.426;2023-09-30T13:26:47;10.40;;;3.97;;
55762;SDS011;42162;51.958;5.426;2023-09-30T13:29:16;11.95;;;4.53;;
55762;SDS011;42162;51.958;5.426;2023-09-30T13:31:43;8.82;;;3.65;;
55762;SDS011;42162;51.958;5.426;2023-09-30T13:34:13;10.45;;;3.65;;
55762;SDS011;42162;51.958;5.426;2023-09-30T13:36:40;8.93;;;3.90;;
55762;SDS011;42162;51.958;5.426;2023-09-30T13:39:07;10.40;;;3.83;;
55762;SDS011;42162;51.958;5.426;2023-09-30T13:41:39;11.38;;;4.40;;
55762;SDS011;42162;51.958;5.426;2023-09-30T13:44:07;10.93;;;3.97;;
55762;SDS011;42162;51.958;5.426;2023-09-30T13:46:34;12.68;;;4.70;;
55762;SDS011;42162;51.958;5.426;2023-09-30T13:49:01;15.10;;;5.45;;
55762;SDS011;42162;51.958;5.426;2023-09-30T13:51:29;7.93;;;3.92;;
55762;SDS011;42162;51.958;5.426;2023-09-30T13:53:56;12.45;;;4.60;;
55762;SDS011;42162;51.958;5.426;2023-09-30T13:56:23;12.18;;;4.85;;
55762;SDS011;42162;51.958;5.426;2023-09-30T13:58:50;8.32;;;3.88;;
55762;SDS011;42162;51.958;5.426;2023-09-30T14:01:17;10.68;;;4.35;;
55762;SDS011;42162;51.958;5.426;2023-09-30T14:03:46;10.82;;;4.40;;
55762;SDS011;42162;51.958;5.426;2023-09-30T14:06:14;10.48;;;4.88;;
55762;SDS011;42162;51.958;5.426;2023-09-30T14:08:41;11.45;;;4.93;;
55762;SDS011;42162;51.958;5.426;2023-09-30T14:11:11;18.15;;;5.10;;
55762;SDS011;42162;51.958;5.426;2023-09-30T14:13:39;10.60;;;4.90;;
55762;SDS011;42162;51.958;5.426;2023-09-30T14:16:06;10.70;;;5.47;;
55762;SDS011;42162;51.958;5.426;2023-09-30T14:18:33;12.02;;;5.15;;
55762;SDS011;42162;51.958;5.426;2023-09-30T14:21:00;10.43;;;5.00;;
55762;SDS011;42162;51.958;5.426;2023-09-30T14:23:27;13.38;;;5.10;;
55762;SDS011;42162;51.958;5.426;2023-09-30T14:25:55;10.40;;;5.15;;
55762;SDS011;42162;51.958;5.426;2023-09-30T14:28:23;13.15;;;4.85;;
55762;SDS011;42162;51.958;5.426;2023-09-30T14:30:52;13.57;;;5.25;;
55762;SDS011;42162;51.958;5.426;2023-09-30T14:33:20;10.45;;;4.50;;
55762;SDS011;42162;51.958;5.426;2023-09-30T14:35:47;9.90;;;4.45;;
55762;SDS011;42162;51.958;5.426;2023-09-30T14:38:16;11.05;;;4.25;;
55762;SDS011;42162;51.958;5.426;2023-09-30T14:40:43;14.32;;;4.97;;
55762;SDS011;42162;51.958;5.426;2023-09-30T14:43:10;11.85;;;4.60;;
55762;SDS011;42162;51.958;5.426;2023-09-30T14:45:38;10.65;;;4.75;;
55762;SDS011;42162;51.958;5.426;2023-09-30T14:48:06;12.40;;;5.32;;
55762;SDS011;42162;51.958;5.426;2023-09-30T14:50:33;11.63;;;6.00;;
55762;SDS011;42162;51.958;5.426;2023-09-30T14:53:00;11.40;;;5.00;;
55762;SDS011;42162;51.958;5.426;2023-09-30T14:55:27;11.63;;;5.50;;
55762;SDS011;42162;51.958;5.426;2023-09-30T14:57:56;15.90;;;6.05;;
55762;SDS011;42162;51.958;5.426;2023-09-30T15:00:23;13.65;;;5.38;;
55762;SDS011;42162;51.958;5.426;2023-09-30T15:02:51;14.98;;;5.88;;